createdAt,value
2018-10-18T00:00:06.103Z,17.52
2018-10-18T00:02:35.286Z,15.83
2018-10-18T00:05:05.203Z,18.23
2018-10-18T00:07:34.561Z,18.32
2018-10-18T00:10:03.894Z,17.62
2018-10-18T00:12:33.206Z,16.40
2018-10-18T00:15:02.441Z,17.98
2018-10-18T00:17:39.067Z,17.67
2018-10-18T00:20:08.349Z,16.02
2018-10-18T00:22:37.572Z,16.00
2018-10-18T00:25:07.138Z,16.97
2018-10-18T00:27:48.829Z,17.90
2018-10-18T00:30:24.884Z,16.95
2018-10-18T00:32:54.072Z,14.80
2018-10-18T00:35:31.705Z,17.35
2018-10-18T00:38:01.164Z,19.60
2018-10-18T00:40:30.266Z,18.35
2018-10-18T00:42:59.479Z,18.40
2018-10-18T00:45:28.706Z,15.43
2018-10-18T00:47:58.194Z,17.25
2018-10-18T00:50:27.632Z,17.82
2018-10-18T00:52:56.898Z,16.73
2018-10-18T00:55:26.502Z,18.48
2018-10-18T00:57:55.716Z,18.62
2018-10-18T01:00:25.476Z,17.35
2018-10-18T01:02:54.680Z,16.73
2018-10-18T01:05:23.922Z,17.17
2018-10-18T01:07:53.401Z,16.67
2018-10-18T01:10:22.766Z,16.70
2018-10-18T01:12:52.184Z,17.12
2018-10-18T01:15:21.401Z,16.90
2018-10-18T01:17:51.767Z,18.90
2018-10-18T01:20:20.925Z,19.25
2018-10-18T01:22:50.131Z,19.02
2018-10-18T01:25:19.347Z,18.30
2018-10-18T01:27:48.867Z,18.48
2018-10-18T01:30:18.237Z,18.87
2018-10-18T01:32:47.530Z,19.27
2018-10-18T01:35:16.711Z,16.73
2018-10-18T01:37:45.960Z,16.87
2018-10-18T01:40:15.211Z,16.67
2018-10-18T01:42:44.385Z,16.07
2018-10-18T01:45:13.584Z,16.95
2018-10-18T01:47:42.951Z,18.35
2018-10-18T01:50:12.293Z,17.27
2018-10-18T01:52:41.453Z,17.25
2018-10-18T01:55:10.693Z,18.50
2018-10-18T01:57:39.927Z,16.77
2018-10-18T02:00:09.580Z,16.45
2018-10-18T02:02:38.922Z,16.65
2018-10-18T02:05:08.177Z,18.77
2018-10-18T02:07:38.600Z,18.62
2018-10-18T02:10:07.953Z,18.35
2018-10-18T02:12:37.147Z,19.45
2018-10-18T02:15:08.698Z,17.55
2018-10-18T02:17:38.089Z,17.25
2018-10-18T02:20:08.194Z,16.05
2018-10-18T02:22:37.363Z,16.10
2018-10-18T02:25:06.832Z,18.30
2018-10-18T02:27:37.151Z,16.65
2018-10-18T02:30:06.666Z,16.60
2018-10-18T02:32:35.838Z,16.48
2018-10-18T02:35:05.636Z,16.25
2018-10-18T02:37:34.923Z,18.30
2018-10-18T02:40:04.216Z,15.18
2018-10-18T02:42:33.449Z,15.45
2018-10-18T02:45:03.240Z,15.85
2018-10-18T02:47:32.505Z,15.43
2018-10-18T02:50:02.249Z,15.93
2018-10-18T02:52:31.697Z,17.30
2018-10-18T02:55:00.873Z,17.48
2018-10-18T02:57:30.803Z,18.15
2018-10-18T02:59:59.968Z,17.87
2018-10-18T03:02:29.400Z,18.85
2018-10-18T03:04:58.629Z,19.75
2018-10-18T03:07:27.925Z,19.92
2018-10-18T03:09:57.097Z,20.45
2018-10-18T03:12:26.271Z,17.20
2018-10-18T03:14:55.453Z,19.42
2018-10-18T03:17:24.876Z,17.87
2018-10-18T03:19:54.270Z,18.85
2018-10-18T03:22:23.471Z,18.55
2018-10-18T03:24:52.663Z,18.75
2018-10-18T03:27:21.924Z,17.65
2018-10-18T03:29:51.144Z,18.42
2018-10-18T03:32:20.364Z,17.45
2018-10-18T03:34:49.537Z,19.60
2018-10-18T03:37:18.982Z,20.35
2018-10-18T03:39:48.174Z,18.98
2018-10-18T03:42:17.563Z,17.20
2018-10-18T03:44:46.651Z,18.77
2018-10-18T03:47:17.855Z,16.17
2018-10-18T03:49:47.061Z,19.37
2018-10-18T03:52:16.277Z,18.12
2018-10-18T03:54:45.465Z,17.20
2018-10-18T03:57:14.743Z,17.65
2018-10-18T03:59:44.049Z,17.02
2018-10-18T04:02:14.617Z,15.83
2018-10-18T04:04:43.794Z,17.40
2018-10-18T04:07:13.187Z,18.90
2018-10-18T04:09:42.360Z,18.62
2018-10-18T04:12:11.718Z,20.08
2018-10-18T04:14:40.864Z,17.77
2018-10-18T04:17:10.976Z,20.48
2018-10-18T04:19:40.154Z,19.73
2018-10-18T04:22:09.354Z,18.70
2018-10-18T04:24:38.649Z,19.17
2018-10-18T04:27:08.024Z,20.77
2018-10-18T04:29:37.307Z,21.75
2018-10-18T04:32:06.706Z,18.35
2018-10-18T04:34:36.336Z,18.55
2018-10-18T04:37:05.998Z,18.95
2018-10-18T04:39:36.057Z,18.95
2018-10-18T04:42:05.512Z,17.40
2018-10-18T04:44:35.735Z,18.75
2018-10-18T04:47:06.012Z,18.02
2018-10-18T04:49:36.163Z,18.42
2018-10-18T04:52:05.605Z,17.75
2018-10-18T04:54:35.244Z,19.90
2018-10-18T04:57:04.539Z,18.50
2018-10-18T04:59:33.778Z,16.95
2018-10-18T05:02:03.038Z,18.85
2018-10-18T05:04:32.252Z,17.60
2018-10-18T05:07:01.587Z,18.95
2018-10-18T05:09:30.715Z,18.95
2018-10-18T05:11:59.910Z,19.67
2018-10-18T05:14:29.167Z,19.20
2018-10-18T05:16:58.530Z,18.05
2018-10-18T05:19:29.329Z,18.90
2018-10-18T05:22:00.507Z,18.87
2018-10-18T05:24:31.222Z,18.95
2018-10-18T05:27:01.572Z,18.98
2018-10-18T05:29:31.532Z,19.05
2018-10-18T05:32:02.120Z,18.30
2018-10-18T05:34:31.318Z,20.05
2018-10-18T05:37:00.887Z,20.60
2018-10-18T05:39:30.020Z,19.52
2018-10-18T05:41:59.254Z,21.05
2018-10-18T05:44:28.480Z,19.55
2018-10-18T05:46:57.774Z,20.62
2018-10-18T05:49:26.955Z,19.48
2018-10-18T05:51:56.146Z,20.55
2018-10-18T05:54:25.313Z,19.50
2018-10-18T05:56:54.706Z,20.12
2018-10-18T05:59:23.893Z,20.65
2018-10-18T06:01:53.058Z,19.32
2018-10-18T06:04:22.236Z,20.60
2018-10-18T06:06:51.513Z,18.57
2018-10-18T06:09:27.823Z,18.67
2018-10-18T06:11:57.013Z,19.55
2018-10-18T06:14:26.288Z,18.92
2018-10-18T06:16:55.954Z,22.07
2018-10-18T06:19:25.203Z,20.25
2018-10-18T06:21:54.461Z,19.65
2018-10-18T06:24:23.649Z,18.85
2018-10-18T06:26:53.916Z,20.37
2018-10-18T06:29:23.156Z,19.00
2018-10-18T06:31:52.338Z,19.77
2018-10-18T06:34:21.782Z,21.23
2018-10-18T06:36:51.114Z,19.15
2018-10-18T06:39:20.405Z,19.85
2018-10-18T06:41:49.804Z,19.62
2018-10-18T06:44:18.999Z,20.15
2018-10-18T06:46:48.383Z,20.05
2018-10-18T06:49:17.705Z,19.67
2018-10-18T06:51:46.788Z,19.65
2018-10-18T06:54:15.997Z,18.45
2018-10-18T06:56:45.173Z,19.48
2018-10-18T06:59:14.361Z,18.55
2018-10-18T07:01:43.555Z,18.35
2018-10-18T07:04:12.770Z,18.35
2018-10-18T07:06:42.258Z,18.75
2018-10-18T07:09:11.871Z,19.17
2018-10-18T07:11:41.779Z,20.02
2018-10-18T07:14:10.975Z,19.65
2018-10-18T07:16:40.177Z,21.17
2018-10-18T07:19:09.523Z,20.90
2018-10-18T07:21:38.755Z,22.30
2018-10-18T07:24:07.987Z,20.88
2018-10-18T07:26:37.152Z,20.65
2018-10-18T07:29:06.360Z,19.48
2018-10-18T07:31:35.565Z,21.45
2018-10-18T07:34:05.913Z,28.80
2018-10-18T07:36:35.141Z,29.05
2018-10-18T07:39:06.700Z,31.00
2018-10-18T07:41:35.898Z,28.92
2018-10-18T07:44:05.268Z,29.67
2018-10-18T07:46:34.504Z,29.40
2018-10-18T07:49:03.755Z,31.48
2018-10-18T07:51:32.910Z,29.98
2018-10-18T07:54:02.201Z,24.63
2018-10-18T07:56:31.967Z,24.07
2018-10-18T07:59:01.431Z,22.62
2018-10-18T08:01:30.674Z,26.02
2018-10-18T08:03:59.882Z,23.47
2018-10-18T08:06:29.110Z,24.85
2018-10-18T08:08:58.345Z,24.65
2018-10-18T08:11:27.536Z,27.30
2018-10-18T08:13:56.776Z,27.55
2018-10-18T08:16:26.420Z,26.30
2018-10-18T08:18:55.674Z,28.02
2018-10-18T08:21:24.847Z,29.10
2018-10-18T08:23:54.062Z,27.98
2018-10-18T08:26:23.555Z,25.43
2018-10-18T08:28:52.765Z,26.90
2018-10-18T08:31:22.158Z,27.15
2018-10-18T08:33:51.161Z,28.65
2018-10-18T08:36:21.744Z,28.50
2018-10-18T08:38:51.611Z,27.10
2018-10-18T08:41:20.997Z,30.17
2018-10-18T08:43:50.237Z,29.07
2018-10-18T08:46:19.410Z,28.57
2018-10-18T08:48:48.608Z,30.45
2018-10-18T08:51:17.802Z,29.15
2018-10-18T08:53:47.717Z,31.82
2018-10-18T08:56:17.663Z,31.17
2018-10-18T08:58:47.901Z,31.15
2018-10-18T09:01:17.220Z,29.15
2018-10-18T09:03:46.617Z,29.35
2018-10-18T09:06:15.832Z,31.25
2018-10-18T09:08:45.579Z,31.55
2018-10-18T09:11:14.786Z,32.15
2018-10-18T09:13:44.153Z,29.80
2018-10-18T09:16:13.455Z,32.13
2018-10-18T09:18:42.693Z,31.57
2018-10-18T09:21:11.867Z,31.70
2018-10-18T09:23:41.086Z,32.67
2018-10-18T09:26:10.339Z,31.95
2018-10-18T09:28:39.717Z,31.50
2018-10-18T09:31:08.980Z,32.03
2018-10-18T09:33:38.101Z,34.88
2018-10-18T09:36:07.273Z,35.65
2018-10-18T09:38:37.435Z,36.13
2018-10-18T09:41:06.732Z,34.55
2018-10-18T09:43:35.958Z,36.48
2018-10-18T09:46:05.612Z,37.78
2018-10-18T09:48:35.076Z,34.67
2018-10-18T09:52:01.533Z,35.17
2018-10-18T09:54:30.743Z,38.17
2018-10-18T09:57:00.155Z,35.83
2018-10-18T09:59:29.423Z,36.58
2018-10-18T10:02:03.823Z,35.78
2018-10-18T10:04:33.135Z,32.45
2018-10-18T10:07:02.501Z,36.10
2018-10-18T10:09:31.640Z,32.38
2018-10-18T10:12:00.835Z,36.23
2018-10-18T10:14:30.036Z,34.50
2018-10-18T10:17:00.280Z,33.95
2018-10-18T10:19:29.474Z,30.12
2018-10-18T10:21:58.646Z,29.35
2018-10-18T10:24:27.863Z,30.65
2018-10-18T10:26:57.103Z,30.85
2018-10-18T10:29:26.408Z,32.55
2018-10-18T10:31:56.002Z,29.95
2018-10-18T10:34:25.246Z,32.88
2018-10-18T10:36:54.557Z,30.88
2018-10-18T10:39:23.818Z,29.00
2018-10-18T10:41:53.488Z,28.12
2018-10-18T10:44:22.712Z,29.32
2018-10-18T10:46:52.230Z,26.93
2018-10-18T10:49:21.579Z,28.02
2018-10-18T10:51:51.501Z,27.75
2018-10-18T10:54:20.766Z,26.02
2018-10-18T10:56:53.181Z,27.02
2018-10-18T10:59:22.493Z,24.70
2018-10-18T11:01:52.549Z,23.98
2018-10-18T11:04:22.067Z,25.50
2018-10-18T11:06:51.482Z,25.52
2018-10-18T11:09:21.323Z,25.37
2018-10-18T11:11:50.818Z,23.65
2018-10-18T11:14:20.431Z,24.35
2018-10-18T11:16:50.856Z,25.05
2018-10-18T11:19:20.199Z,25.82
2018-10-18T11:21:49.864Z,25.80
2018-10-18T11:24:19.219Z,24.07
2018-10-18T11:26:49.298Z,24.90
2018-10-18T11:29:18.630Z,23.92
2018-10-18T11:31:48.190Z,22.73
2018-10-18T11:34:17.551Z,24.40
2018-10-18T11:36:47.011Z,23.05
2018-10-18T11:39:17.108Z,23.15
2018-10-18T11:41:46.435Z,22.50
2018-10-18T11:44:15.814Z,21.80
2018-10-18T11:46:46.717Z,19.02
2018-10-18T11:49:15.980Z,21.73
2018-10-18T11:51:46.496Z,21.17
2018-10-18T11:54:15.844Z,18.25
2018-10-18T11:56:46.298Z,18.77
2018-10-18T11:59:15.843Z,18.30
2018-10-18T12:01:45.111Z,19.70
2018-10-18T12:04:14.488Z,18.70
2018-10-18T12:06:44.895Z,18.45
2018-10-18T12:09:15.432Z,19.02
2018-10-18T12:11:44.868Z,19.40
2018-10-18T12:14:15.003Z,19.95
2018-10-18T12:16:53.213Z,19.40
2018-10-18T12:19:33.310Z,19.50
2018-10-18T12:24:47.207Z,16.95
2018-10-18T12:27:16.578Z,17.63
2018-10-18T12:29:45.786Z,18.80
2018-10-18T12:32:16.882Z,15.20
2018-10-18T12:34:46.046Z,17.03
2018-10-18T12:37:15.691Z,16.87
2018-10-18T12:39:45.092Z,18.33
2018-10-18T12:42:14.254Z,15.90
2018-10-18T12:44:43.457Z,14.98
2018-10-18T12:47:19.085Z,16.50
2018-10-18T12:49:48.314Z,14.47
2018-10-18T12:52:17.536Z,16.67
2018-10-18T12:54:46.800Z,16.17
2018-10-18T12:57:16.149Z,15.10
2018-10-18T12:59:45.375Z,15.53
2018-10-18T13:02:17.346Z,14.83
2018-10-18T13:04:49.404Z,14.83
2018-10-18T13:07:19.517Z,13.63
2018-10-18T13:09:48.742Z,15.57
2018-10-18T13:12:21.367Z,14.50
2018-10-18T13:14:50.503Z,15.33
2018-10-18T13:17:21.601Z,16.60
2018-10-18T13:19:51.203Z,16.80
2018-10-18T13:22:20.416Z,14.00
2018-10-18T13:24:50.101Z,15.20
2018-10-18T13:27:24.245Z,16.30
2018-10-18T13:29:53.502Z,15.63
2018-10-18T13:32:26.787Z,14.03
2018-10-18T13:34:56.071Z,14.97
2018-10-18T13:40:23.757Z,15.00
2018-10-18T13:42:52.991Z,16.43
2018-10-18T13:45:25.993Z,15.00
2018-10-18T13:47:55.452Z,15.23
2018-10-18T13:50:26.521Z,16.53
2018-10-18T13:52:56.203Z,15.77
2018-10-18T13:55:27.423Z,17.00
2018-10-18T13:57:57.428Z,15.77
2018-10-18T14:00:30.640Z,15.30
2018-10-18T14:02:59.912Z,18.50
2018-10-18T14:05:30.600Z,17.10
2018-10-18T14:08:01.513Z,15.17
2018-10-18T14:10:34.292Z,15.33
2018-10-18T14:13:03.527Z,15.07
2018-10-18T14:15:35.249Z,16.70
2018-10-18T14:18:04.878Z,16.17
2018-10-18T14:20:36.383Z,15.17
2018-10-18T14:23:06.525Z,16.50
2018-10-18T14:25:38.169Z,15.57
2018-10-18T14:28:07.550Z,15.70
2018-10-18T14:30:39.488Z,17.13
2018-10-18T14:33:08.907Z,15.23
2018-10-18T14:35:40.500Z,14.23
2018-10-18T14:38:13.003Z,16.47
2018-10-18T14:40:44.094Z,16.37
2018-10-18T14:43:14.102Z,17.97
2018-10-18T14:45:44.480Z,17.90
2018-10-18T14:48:14.261Z,16.50
2018-10-18T14:50:45.797Z,17.07
2018-10-18T14:53:15.983Z,18.60
2018-10-18T14:55:45.922Z,17.53
2018-10-18T14:58:16.490Z,18.80
2018-10-18T15:00:48.254Z,20.50
2018-10-18T15:03:17.758Z,17.20
2018-10-18T15:05:47.489Z,18.97
2018-10-18T15:08:17.195Z,19.00
2018-10-18T15:10:48.527Z,19.17
2018-10-18T15:13:19.292Z,19.53
2018-10-18T15:15:51.965Z,18.30
2018-10-18T15:18:23.880Z,17.83
2018-10-18T15:20:53.441Z,17.20
2018-10-18T15:23:25.679Z,17.77
2018-10-18T15:25:56.149Z,18.10
2018-10-18T15:28:29.039Z,18.60
2018-10-18T15:30:58.842Z,18.73
2018-10-18T15:33:29.383Z,16.43
2018-10-18T15:35:59.006Z,17.60
2018-10-18T15:38:29.181Z,17.43
2018-10-18T15:40:58.331Z,17.30
2018-10-18T15:43:28.451Z,18.00
2018-10-18T15:45:58.501Z,18.67
2018-10-18T15:48:27.822Z,18.93
2018-10-18T15:50:58.139Z,18.50
2018-10-18T15:53:27.426Z,17.67
2018-10-18T15:55:57.035Z,18.70
2018-10-18T15:58:27.252Z,16.53
2018-10-18T16:00:56.971Z,14.93
2018-10-18T16:03:27.667Z,16.90
2018-10-18T16:05:57.184Z,15.27
2018-10-18T16:08:28.072Z,15.78
2018-10-18T16:10:57.442Z,17.62
2018-10-18T16:13:27.124Z,17.82
2018-10-18T16:16:00.018Z,17.50
2018-10-18T16:18:31.503Z,17.20
2018-10-18T16:21:00.906Z,17.30
2018-10-18T16:23:31.167Z,16.02
2018-10-18T16:26:02.391Z,16.60
2018-10-18T16:28:33.070Z,15.98
2018-10-18T16:31:02.526Z,15.20
2018-10-18T16:33:32.153Z,15.72
2018-10-18T16:36:05.649Z,17.25
2018-10-18T16:38:35.318Z,15.98
2018-10-18T16:41:06.313Z,16.50
2018-10-18T16:43:36.101Z,15.95
2018-10-18T16:46:07.648Z,14.85
2018-10-18T16:48:39.987Z,15.20
2018-10-18T16:51:09.370Z,17.75
2018-10-18T16:53:38.591Z,15.53
2018-10-18T16:56:08.912Z,15.55
2018-10-18T16:58:38.383Z,17.35
2018-10-18T17:01:08.679Z,16.32
2018-10-18T17:03:38.491Z,15.18
2018-10-18T17:06:10.382Z,16.07
2018-10-18T17:08:39.657Z,16.62
2018-10-18T17:11:09.077Z,14.75
2018-10-18T17:13:39.438Z,16.75
2018-10-18T17:16:10.723Z,18.37
2018-10-18T17:18:40.116Z,20.10
2018-10-18T17:21:09.358Z,22.60
2018-10-18T17:23:38.631Z,43.00
2018-10-18T17:26:12.363Z,43.85
2018-10-18T17:28:42.715Z,18.98
2018-10-18T17:31:12.229Z,17.87
2018-10-18T17:33:41.761Z,16.65
2018-10-18T17:36:12.243Z,15.90
2018-10-18T17:40:11.714Z,16.27
2018-10-18T17:42:41.528Z,16.17
2018-10-18T17:45:15.727Z,15.72
2018-10-18T17:47:47.840Z,17.85
2018-10-18T17:50:20.284Z,17.92
2018-10-18T17:52:50.054Z,18.82
2018-10-18T17:55:19.340Z,16.45
2018-10-18T17:57:50.601Z,18.30
2018-10-18T18:00:23.558Z,19.62
2018-10-18T18:02:53.245Z,18.70
2018-10-18T18:05:22.784Z,18.45
2018-10-18T18:07:52.495Z,20.32
2018-10-18T18:10:27.310Z,18.20
2018-10-18T18:12:58.022Z,18.62
2018-10-18T18:15:29.004Z,18.70
2018-10-18T18:18:01.020Z,19.52
2018-10-18T18:20:31.571Z,21.10
2018-10-18T18:23:01.607Z,19.15
2018-10-18T18:25:31.713Z,21.68
2018-10-18T18:28:02.189Z,22.17
2018-10-18T18:30:33.145Z,21.90
2018-10-18T18:33:02.449Z,22.13
2018-10-18T18:35:32.423Z,20.52
2018-10-18T18:38:02.915Z,22.45
2018-10-18T18:40:33.074Z,19.80
2018-10-18T18:43:02.878Z,20.70
2018-10-18T18:45:37.391Z,20.37
2018-10-18T18:48:06.913Z,19.80
2018-10-18T18:50:36.183Z,20.43
2018-10-18T18:53:06.773Z,19.15
2018-10-18T18:55:36.329Z,20.65
2018-10-18T18:58:05.878Z,21.15
2018-10-18T19:00:35.713Z,22.32
2018-10-18T19:03:05.796Z,21.62
2018-10-18T19:05:35.160Z,19.12
2018-10-18T19:08:04.484Z,15.60
2018-10-18T19:10:33.812Z,15.85
2018-10-18T19:13:35.249Z,15.53
2018-10-18T19:16:04.522Z,14.80
2018-10-18T19:18:35.636Z,17.23
2018-10-18T19:21:05.160Z,16.37
2018-10-18T19:23:34.450Z,17.00
2018-10-18T19:26:05.077Z,17.30
2018-10-18T19:28:34.720Z,18.45
2018-10-18T19:31:07.039Z,15.83
2018-10-18T19:33:36.397Z,17.37
2018-10-18T19:36:06.866Z,18.05
2018-10-18T19:38:36.467Z,17.25
2018-10-18T19:41:05.745Z,17.02
2018-10-18T19:43:35.203Z,19.55
2018-10-18T19:46:05.903Z,20.05
2018-10-18T19:48:39.354Z,16.70
2018-10-18T19:51:08.857Z,16.07
2018-10-18T19:53:38.379Z,16.42
2018-10-18T19:56:07.967Z,17.15
2018-10-18T19:58:37.451Z,16.90
2018-10-18T20:01:07.050Z,19.05
2018-10-18T20:03:36.403Z,18.42
2018-10-18T20:06:06.458Z,18.17
2018-10-18T20:08:37.842Z,20.48
2018-10-18T20:11:08.262Z,18.00
2018-10-18T20:13:39.760Z,19.77
2018-10-18T20:16:10.157Z,21.27
2018-10-18T20:18:41.215Z,18.20
2018-10-18T20:21:12.177Z,17.30
2018-10-18T20:23:42.219Z,19.67
2018-10-18T20:26:14.008Z,17.25
2018-10-18T20:28:43.019Z,19.32
2018-10-18T20:31:13.011Z,19.40
2018-10-18T20:33:42.274Z,18.20
2018-10-18T20:36:12.494Z,18.67
2018-10-18T20:38:43.944Z,19.45
2018-10-18T20:41:15.488Z,17.98
2018-10-18T20:43:45.007Z,17.07
2018-10-18T20:46:15.302Z,17.85
2018-10-18T20:48:44.813Z,20.12
2018-10-18T20:51:15.285Z,17.73
2018-10-18T20:53:45.048Z,19.48
2018-10-18T20:56:15.611Z,20.35
2018-10-18T20:58:44.975Z,20.27
2018-10-18T21:01:14.984Z,18.52
2018-10-18T21:03:44.704Z,21.05
2018-10-18T21:06:15.171Z,20.12
2018-10-18T21:08:46.342Z,21.80
2018-10-18T21:11:16.463Z,18.77
2018-10-18T21:13:46.592Z,21.42
2018-10-18T21:16:20.162Z,19.15
2018-10-18T21:18:50.442Z,18.80
2018-10-18T21:21:19.670Z,23.22
2018-10-18T21:23:48.908Z,19.95
2018-10-18T21:26:18.154Z,20.25
2018-10-18T21:28:47.406Z,19.92
2018-10-18T21:31:18.082Z,21.50
2018-10-18T21:33:49.014Z,17.17
2018-10-18T21:36:19.225Z,18.55
2018-10-18T21:38:48.869Z,21.30
2018-10-18T21:41:18.679Z,20.77
2018-10-18T21:43:47.940Z,25.08
2018-10-18T21:46:17.391Z,20.10
2018-10-18T21:48:46.999Z,22.10
2018-10-18T21:51:17.602Z,21.75
2018-10-18T21:53:46.748Z,20.02
2018-10-18T21:56:16.595Z,21.62
2018-10-18T21:58:46.754Z,21.70
2018-10-18T22:01:16.771Z,21.30
2018-10-18T22:03:50.279Z,21.37
2018-10-18T22:06:20.140Z,22.67
2018-10-18T22:08:49.383Z,22.35
2018-10-18T22:11:18.604Z,22.93
2018-10-18T22:13:48.133Z,21.40
2018-10-18T22:16:18.090Z,21.02
2018-10-18T22:18:48.693Z,23.45
2018-10-18T22:21:19.565Z,21.25
2018-10-18T22:23:49.861Z,23.87
2018-10-18T22:26:19.309Z,23.35
2018-10-18T22:28:48.703Z,23.18
2018-10-18T22:31:20.009Z,22.48
2018-10-18T22:33:49.256Z,22.35
2018-10-18T22:36:21.837Z,25.20
2018-10-18T22:38:51.517Z,24.85
2018-10-18T22:41:21.320Z,25.05
2018-10-18T22:43:51.646Z,23.45
2018-10-18T22:46:21.862Z,22.22
2018-10-18T22:48:51.806Z,24.90
2018-10-18T22:51:21.026Z,24.15
2018-10-18T22:53:50.283Z,22.50
2018-10-18T22:56:20.032Z,24.57
2018-10-18T22:58:49.693Z,24.00
2018-10-18T23:01:19.835Z,25.17
2018-10-18T23:03:49.588Z,23.67
2018-10-18T23:06:19.561Z,27.37
2018-10-18T23:08:49.070Z,27.10
2018-10-18T23:11:18.958Z,26.48
2018-10-18T23:13:49.546Z,27.67
2018-10-18T23:16:21.651Z,26.52
2018-10-18T23:18:51.857Z,25.10
2018-10-18T23:21:21.093Z,24.43
2018-10-18T23:23:52.283Z,24.40
2018-10-18T23:26:22.476Z,23.50
2018-10-18T23:28:51.956Z,24.60
2018-10-18T23:31:21.214Z,22.07
2018-10-18T23:33:52.170Z,24.37
2018-10-18T23:36:24.838Z,22.77
2018-10-18T23:38:54.069Z,22.70
2018-10-18T23:41:24.214Z,23.00
2018-10-18T23:43:53.988Z,23.62
2018-10-18T23:46:23.442Z,26.02
2018-10-18T23:48:52.659Z,23.05
2018-10-18T23:51:22.198Z,25.45
2018-10-18T23:53:51.548Z,23.02
2018-10-18T23:56:23.675Z,24.85
2018-10-18T23:58:52.936Z,23.62
